Time,TemperatureF,DewpointF,PressureIn,WindDirection,WindDirectionDegrees,WindSpeedMPH,WindSpeedGustMPH,Humidity,HourlyPrecipIn,Conditions,Clouds,dailyrainin,SoftwareType,DateUTC
2013-06-22 00:01:00,81.5,70.0,29.98,SE,135,1.6,1.6,68,0.00,,,0.00,WUHU216EASYWX,2013-06-22 05:01:00,
2013-06-22 00:06:00,81.5,70.0,29.98,South,180,5.4,5.4,68,0.00,,,0.00,WUHU216EASYWX,2013-06-22 05:06:00,
2013-06-22 00:11:00,81.5,70.0,29.98,South,180,2.2,2.2,68,0.00,,,0.00,WUHU216EASYWX,2013-06-22 05:11:00,
2013-06-22 00:16:00,81.3,69.8,29.99,SW,225,2.2,2.2,68,0.00,,,0.00,WUHU216EASYWX,2013-06-22 05:16:00,
2013-06-22 00:21:00,81.1,69.6,29.98,SE,135,1.6,1.6,68,0.00,,,0.00,WUHU216EASYWX,2013-06-22 05:21:00,
2013-06-22 00:26:00,81.0,69.8,29.98,South,180,1.6,1.6,69,0.00,,,0.00,WUHU216EASYWX,2013-06-22 05:26:00,
2013-06-22 00:31:00,80.8,70.2,29.98,SE,135,3.8,3.8,70,0.00,,,0.00,WUHU216EASYWX,2013-06-22 05:31:00,
2013-06-22 00:36:00,80.6,70.0,29.98,SW,225,3.8,3.8,70,0.00,,,0.00,WUHU216EASYWX,2013-06-22 05:36:00,
2013-06-22 00:41:00,80.4,70.2,29.98,SW,225,2.2,2.2,71,0.00,,,0.00,WUHU216EASYWX,2013-06-22 05:41:00,
2013-06-22 00:46:00,80.2,70.5,29.98,SW,225,3.1,3.1,72,0.00,,,0.00,WUHU216EASYWX,2013-06-22 05:46:00,
2013-06-22 00:51:00,80.1,70.3,29.98,SW,225,1.6,1.6,72,0.00,,,0.00,WUHU216EASYWX,2013-06-22 05:51:00,
2013-06-22 00:56:00,79.9,70.5,29.98,SE,135,3.8,3.8,73,0.00,,,0.00,WUHU216EASYWX,2013-06-22 05:56:00,
2013-06-22 01:01:00,79.7,70.3,29.98,East,90,1.6,1.6,73,0.00,,,0.00,WUHU216EASYWX,2013-06-22 06:01:00,
2013-06-22 01:06:00,79.7,70.3,29.98,SE,135,1.6,1.6,73,0.00,,,0.00,WUHU216EASYWX,2013-06-22 06:06:00,
2013-06-22 01:11:00,79.5,70.5,29.98,SW,225,2.2,2.2,74,0.00,,,0.00,WUHU216EASYWX,2013-06-22 06:11:00,
2013-06-22 01:16:00,79.5,70.5,29.98,SW,225,4.5,4.5,74,0.00,,,0.00,WUHU216EASYWX,2013-06-22 06:16:00,
2013-06-22 01:21:00,79.3,70.3,29.98,SE,135,1.6,1.6,74,0.00,,,0.00,WUHU216EASYWX,2013-06-22 06:21:00,
2013-06-22 01:26:00,79.3,70.3,29.98,SE,135,2.2,2.2,74,0.00,,,0.00,WUHU216EASYWX,2013-06-22 06:26:00,
2013-06-22 01:31:00,79.3,70.3,29.98,SW,225,2.2,2.2,74,0.00,,,0.00,WUHU216EASYWX,2013-06-22 06:31:00,
2013-06-22 01:36:00,79.3,70.3,29.98,SW,225,2.2,2.2,74,0.00,,,0.00,WUHU216EASYWX,2013-06-22 06:36:00,
2013-06-22 01:41:00,79.3,70.3,29.98,South,180,1.6,1.6,74,0.00,,,0.00,WUHU216EASYWX,2013-06-22 06:41:00,
2013-06-22 01:46:00,79.3,70.3,29.98,SW,225,0.7,0.7,74,0.00,,,0.00,WUHU216EASYWX,2013-06-22 06:46:00,
2013-06-22 01:51:00,79.3,70.3,29.98,NW,315,3.8,3.8,74,0.00,,,0.00,WUHU216EASYWX,2013-06-22 06:51:00,
2013-06-22 01:56:00,79.3,70.3,29.97,SE,135,1.6,1.6,74,0.00,,,0.00,WUHU216EASYWX,2013-06-22 06:56:00,
2013-06-22 02:01:00,79.3,70.3,29.97,SE,135,3.1,3.1,74,0.00,,,0.00,WUHU216EASYWX,2013-06-22 07:01:00,
2013-06-22 02:06:00,79.3,70.3,29.97,SW,225,3.1,3.1,74,0.00,,,0.00,WUHU216EASYWX,2013-06-22 07:06:00,
2013-06-22 02:11:00,79.5,70.5,29.97,SW,225,3.1,3.1,74,0.00,,,0.00,WUHU216EASYWX,2013-06-22 07:11:00,
2013-06-22 02:16:00,79.3,70.3,29.97,South,180,3.1,3.1,74,0.00,,,0.00,WUHU216EASYWX,2013-06-22 07:16:00,
2013-06-22 02:21:00,79.3,70.3,29.97,SW,225,4.5,4.5,74,0.00,,,0.00,WUHU216EASYWX,2013-06-22 07:21:00,
2013-06-22 02:26:00,79.3,70.3,29.97,SW,225,6.0,6.0,74,0.00,,,0.00,WUHU216EASYWX,2013-06-22 07:26:00,
2013-06-22 02:31:00,79.2,70.2,29.97,SW,225,2.2,2.2,74,0.00,,,0.00,WUHU216EASYWX,2013-06-22 07:31:00,
2013-06-22 02:36:00,79.2,70.2,29.97,SW,225,3.1,3.1,74,0.00,,,0.00,WUHU216EASYWX,2013-06-22 07:36:00,
2013-06-22 02:41:00,79.2,70.5,29.97,SE,135,3.1,3.1,75,0.00,,,0.00,WUHU216EASYWX,2013-06-22 07:41:00,
2013-06-22 02:46:00,79.0,70.5,29.97,SSE,158,3.1,3.1,75,0.00,,,0.00,WUHU216EASYWX,2013-06-22 07:46:00,
2013-06-22 02:51:00,79.0,70.5,29.96,South,180,2.2,2.2,75,0.00,,,0.00,WUHU216EASYWX,2013-06-22 07:51:00,
2013-06-22 02:56:00,78.8,70.3,29.97,South,180,4.5,4.5,75,0.00,,,0.00,WUHU216EASYWX,2013-06-22 07:56:00,
2013-06-22 03:01:00,78.6,70.5,29.97,SW,225,3.1,3.1,76,0.00,,,0.00,WUHU216EASYWX,2013-06-22 08:01:00,
2013-06-22 03:06:00,78.6,70.5,29.97,SW,225,3.8,3.8,76,0.00,,,0.00,WUHU216EASYWX,2013-06-22 08:06:00,
2013-06-22 03:11:00,78.6,70.5,29.97,SE,135,3.8,3.8,76,0.00,,,0.00,WUHU216EASYWX,2013-06-22 08:11:00,
2013-06-22 03:16:00,78.4,70.3,29.97,South,180,3.8,3.8,76,0.00,,,0.00,WUHU216EASYWX,2013-06-22 08:16:00,
2013-06-22 03:21:00,78.4,70.7,29.97,SW,225,2.2,2.2,77,0.00,,,0.00,WUHU216EASYWX,2013-06-22 08:21:00,
2013-06-22 03:26:00,78.4,70.7,29.97,West,270,0.7,0.7,77,0.00,,,0.00,WUHU216EASYWX,2013-06-22 08:26:00,
2013-06-22 03:31:00,78.3,70.5,29.97,SE,135,3.8,3.8,77,0.00,,,0.00,WUHU216EASYWX,2013-06-22 08:31:00,
2013-06-22 03:36:00,78.4,70.7,29.97,South,180,3.1,3.1,77,0.00,,,0.00,WUHU216EASYWX,2013-06-22 08:36:00,
2013-06-22 03:41:00,78.4,70.7,29.97,SE,135,3.8,3.8,77,0.00,,,0.00,WUHU216EASYWX,2013-06-22 08:41:00,
2013-06-22 03:46:00,78.4,70.7,29.97,NE,45,3.1,3.1,77,0.00,,,0.00,WUHU216EASYWX,2013-06-22 08:46:00,
2013-06-22 03:51:00,78.4,70.3,29.97,South,180,2.2,2.2,76,0.00,,,0.00,WUHU216EASYWX,2013-06-22 08:51:00,
2013-06-22 03:56:00,78.4,70.3,29.96,West,270,2.2,2.2,76,0.00,,,0.00,WUHU216EASYWX,2013-06-22 08:56:00,
2013-06-22 04:01:00,78.6,70.5,29.97,SW,225,3.8,3.8,76,0.00,,,0.00,WUHU216EASYWX,2013-06-22 09:01:00,
2013-06-22 04:06:00,78.6,70.5,29.96,South,180,3.8,3.8,76,0.00,,,0.00,WUHU216EASYWX,2013-06-22 09:06:00,
2013-06-22 04:11:00,78.8,70.3,29.96,SE,135,1.6,1.6,75,0.00,,,0.00,WUHU216EASYWX,2013-06-22 09:11:00,
2013-06-22 04:16:00,78.6,70.5,29.97,SE,135,1.6,1.6,76,0.00,,,0.00,WUHU216EASYWX,2013-06-22 09:16:00,
2013-06-22 04:21:00,78.4,70.3,29.97,SW,225,2.2,2.2,76,0.00,,,0.00,WUHU216EASYWX,2013-06-22 09:21:00,
2013-06-22 04:26:00,78.3,70.2,29.97,South,180,0.7,0.7,76,0.00,,,0.00,WUHU216EASYWX,2013-06-22 09:26:00,
2013-06-22 04:31:00,78.3,70.5,29.97,East,90,3.1,3.1,77,0.00,,,0.00,WUHU216EASYWX,2013-06-22 09:31:00,
2013-06-22 04:36:00,78.1,70.3,29.97,SE,135,1.6,1.6,77,0.00,,,0.00,WUHU216EASYWX,2013-06-22 09:36:00,
2013-06-22 04:41:00,77.7,70.3,29.97,South,180,1.6,1.6,78,0.00,,,0.00,WUHU216EASYWX,2013-06-22 09:41:00,
2013-06-22 04:46:00,77.5,70.2,29.97,East,90,1.6,1.6,78,0.00,,,0.00,WUHU216EASYWX,2013-06-22 09:46:00,
2013-06-22 04:51:00,77.4,70.3,29.97,South,180,0.7,0.7,79,0.00,,,0.00,WUHU216EASYWX,2013-06-22 09:51:00,
2013-06-22 04:56:00,77.2,70.5,29.97,SE,135,1.6,1.6,80,0.00,,,0.00,WUHU216EASYWX,2013-06-22 09:56:00,
2013-06-22 05:01:00,76.8,70.2,29.97,SW,225,2.2,2.2,80,0.00,,,0.00,WUHU216EASYWX,2013-06-22 10:01:00,
2013-06-22 05:06:00,76.8,70.5,29.97,SE,135,1.6,1.6,81,0.00,,,0.00,WUHU216EASYWX,2013-06-22 10:06:00,
2013-06-22 05:11:00,76.5,70.2,29.97,SE,135,3.1,3.1,81,0.00,,,0.00,WUHU216EASYWX,2013-06-22 10:11:00,
2013-06-22 05:16:00,76.1,70.3,29.97,SE,135,1.6,1.6,82,0.00,,,0.00,WUHU216EASYWX,2013-06-22 10:16:00,
2013-06-22 05:21:00,76.1,70.3,29.97,SW,225,2.2,2.2,82,0.00,,,0.00,WUHU216EASYWX,2013-06-22 10:21:00,
2013-06-22 05:26:00,75.9,70.5,29.97,SE,135,1.6,1.6,83,0.00,,,0.00,WUHU216EASYWX,2013-06-22 10:26:00,
2013-06-22 05:31:00,75.9,70.5,29.98,SE,135,2.2,2.2,83,0.00,,,0.00,WUHU216EASYWX,2013-06-22 10:31:00,
2013-06-22 05:36:00,75.9,70.5,29.98,SW,225,2.2,2.2,83,0.00,,,0.00,WUHU216EASYWX,2013-06-22 10:36:00,
2013-06-22 05:41:00,75.9,70.5,29.98,SE,135,2.2,2.2,83,0.00,,,0.00,WUHU216EASYWX,2013-06-22 10:41:00,
2013-06-22 05:46:00,75.9,70.2,29.98,SE,135,3.1,3.1,82,0.00,,,0.00,WUHU216EASYWX,2013-06-22 10:46:00,
2013-06-22 05:51:00,75.9,70.2,29.98,SE,135,2.2,2.2,82,0.00,,,0.00,WUHU216EASYWX,2013-06-22 10:51:00,
2013-06-22 05:56:00,76.1,70.3,29.98,South,180,2.2,2.2,82,0.00,,,0.00,WUHU216EASYWX,2013-06-22 10:56:00,
2013-06-22 06:02:00,76.3,70.3,29.98,South,180,2.2,2.2,82,0.00,,,0.00,WUHU216EASYWX,2013-06-22 11:02:00,
2013-06-22 06:07:00,76.1,70.3,29.98,SE,135,2.2,2.2,82,0.00,,,0.00,WUHU216EASYWX,2013-06-22 11:07:00,
2013-06-22 06:12:00,76.1,70.3,29.98,South,180,3.1,3.1,82,0.00,,,0.00,WUHU216EASYWX,2013-06-22 11:12:00,
2013-06-22 06:17:00,76.1,70.3,29.98,East,90,2.2,2.2,82,0.00,,,0.00,WUHU216EASYWX,2013-06-22 11:17:00,
2013-06-22 06:22:00,76.1,70.3,29.98,South,180,2.2,2.2,82,0.00,,,0.00,WUHU216EASYWX,2013-06-22 11:22:00,
2013-06-22 06:27:00,76.1,70.3,29.98,SE,135,3.1,3.1,82,0.00,,,0.00,WUHU216EASYWX,2013-06-22 11:27:00,
2013-06-22 06:32:00,76.1,70.3,29.98,SE,135,2.2,2.2,82,0.00,,,0.00,WUHU216EASYWX,2013-06-22 11:32:00,
2013-06-22 06:37:00,76.3,70.3,29.98,East,90,2.2,2.2,82,0.00,,,0.00,WUHU216EASYWX,2013-06-22 11:37:00,
2013-06-22 06:42:00,76.3,70.3,29.98,South,180,0.7,0.7,82,0.00,,,0.00,WUHU216EASYWX,2013-06-22 11:42:00,
2013-06-22 06:47:00,76.3,70.3,29.98,SE,135,2.2,2.2,82,0.00,,,0.00,WUHU216EASYWX,2013-06-22 11:47:00,
2013-06-22 06:52:00,76.6,70.3,29.98,SW,225,2.2,2.2,81,0.00,,,0.00,WUHU216EASYWX,2013-06-22 11:52:00,
2013-06-22 06:57:00,76.6,70.3,29.99,SE,135,2.2,2.2,81,0.00,,,0.00,WUHU216EASYWX,2013-06-22 11:57:00,
2013-06-22 07:02:00,76.8,70.5,29.98,East,90,2.2,2.2,81,0.00,,,0.00,WUHU216EASYWX,2013-06-22 12:02:00,
2013-06-22 07:07:00,77.0,70.7,29.99,South,180,2.2,2.2,81,0.00,,,0.00,WUHU216EASYWX,2013-06-22 12:07:00,
2013-06-22 07:12:00,77.2,70.5,29.99,South,180,3.8,3.8,80,0.00,,,0.00,WUHU216EASYWX,2013-06-22 12:12:00,
2013-06-22 07:17:00,77.4,70.7,29.99,East,90,3.1,3.1,80,0.00,,,0.00,WUHU216EASYWX,2013-06-22 12:17:00,
2013-06-22 07:22:00,77.4,70.7,29.98,SE,135,3.1,3.1,80,0.00,,,0.00,WUHU216EASYWX,2013-06-22 12:22:00,
2013-06-22 07:27:00,77.5,70.5,29.99,SE,135,3.8,3.8,79,0.00,,,0.00,WUHU216EASYWX,2013-06-22 12:27:00,
2013-06-22 07:32:00,77.4,70.3,29.99,SW,225,6.0,6.0,79,0.00,,,0.00,WUHU216EASYWX,2013-06-22 12:32:00,
2013-06-22 07:37:00,77.7,71.1,29.99,South,180,2.2,2.2,80,0.00,,,0.00,WUHU216EASYWX,2013-06-22 12:37:00,
2013-06-22 07:42:00,77.7,70.7,29.99,South,180,3.1,3.1,79,0.00,,,0.00,WUHU216EASYWX,2013-06-22 12:42:00,
2013-06-22 07:47:00,77.7,70.7,29.99,SE,135,5.4,5.4,79,0.00,,,0.00,WUHU216EASYWX,2013-06-22 12:47:00,
2013-06-22 07:52:00,77.9,70.9,29.99,SW,225,3.8,3.8,79,0.00,,,0.00,WUHU216EASYWX,2013-06-22 12:52:00,
2013-06-22 07:57:00,78.1,71.1,29.99,South,180,3.8,3.8,79,0.00,,,0.00,WUHU216EASYWX,2013-06-22 12:57:00,
2013-06-22 08:02:00,78.4,71.1,29.99,South,180,4.5,4.5,78,0.00,,,0.00,WUHU216EASYWX,2013-06-22 13:02:00,
2013-06-22 08:07:00,78.6,71.2,29.99,SW,225,3.1,3.1,78,0.00,,,0.00,WUHU216EASYWX,2013-06-22 13:07:00,
2013-06-22 08:12:00,79.2,71.4,29.99,South,180,4.5,4.5,77,0.00,,,0.00,WUHU216EASYWX,2013-06-22 13:12:00,
2013-06-22 08:17:00,79.7,71.6,29.99,South,180,3.8,3.8,76,0.00,,,0.00,WUHU216EASYWX,2013-06-22 13:17:00,
2013-06-22 08:22:00,80.1,71.4,29.99,SW,225,3.1,3.1,75,0.00,,,0.00,WUHU216EASYWX,2013-06-22 13:22:00,
2013-06-22 08:27:00,80.2,71.6,29.99,South,180,4.5,4.5,75,0.00,,,0.00,WUHU216EASYWX,2013-06-22 13:27:00,
2013-06-22 08:32:00,80.6,71.6,29.99,SW,225,5.4,5.4,74,0.00,,,0.00,WUHU216EASYWX,2013-06-22 13:32:00,
2013-06-22 08:37:00,80.6,71.6,29.99,SE,135,8.3,8.3,74,0.00,,,0.00,WUHU216EASYWX,2013-06-22 13:37:00,
2013-06-22 08:42:00,80.8,71.8,30.00,South,180,4.5,4.5,74,0.00,,,0.00,WUHU216EASYWX,2013-06-22 13:42:00,
2013-06-22 08:47:00,81.0,72.0,30.00,SW,225,4.5,4.5,74,0.00,,,0.00,WUHU216EASYWX,2013-06-22 13:47:00,
2013-06-22 08:52:00,81.5,72.1,30.00,SE,135,3.8,3.8,73,0.00,,,0.00,WUHU216EASYWX,2013-06-22 13:52:00,
2013-06-22 08:57:00,82.4,72.5,30.00,South,180,3.1,3.1,72,0.00,,,0.00,WUHU216EASYWX,2013-06-22 13:57:00,
2013-06-22 09:02:00,82.9,72.7,30.00,SE,135,2.2,2.2,71,0.00,,,0.00,WUHU216EASYWX,2013-06-22 14:02:00,
2013-06-22 09:07:00,83.1,72.3,30.01,South,180,3.1,3.1,70,0.00,,,0.00,WUHU216EASYWX,2013-06-22 14:07:00,
2013-06-22 09:12:00,83.1,72.3,30.01,SE,135,2.2,2.2,70,0.00,,,0.00,WUHU216EASYWX,2013-06-22 14:12:00,
2013-06-22 09:17:00,83.5,72.7,30.01,South,180,3.8,3.8,70,0.00,,,0.00,WUHU216EASYWX,2013-06-22 14:17:00,
2013-06-22 09:22:00,83.3,72.5,30.01,SW,225,3.8,3.8,70,0.00,,,0.00,WUHU216EASYWX,2013-06-22 14:22:00,
2013-06-22 09:27:00,83.7,72.5,30.01,SW,225,2.2,2.2,69,0.00,,,0.00,WUHU216EASYWX,2013-06-22 14:27:00,
2013-06-22 09:32:00,83.8,72.1,30.01,South,180,5.4,5.4,68,0.00,,,0.00,WUHU216EASYWX,2013-06-22 14:32:00,
2013-06-22 09:37:00,84.4,71.8,30.01,East,90,4.5,4.5,66,0.00,,,0.00,WUHU216EASYWX,2013-06-22 14:37:00,
2013-06-22 09:42:00,84.2,71.6,30.01,SW,225,5.4,5.4,66,0.00,,,0.00,WUHU216EASYWX,2013-06-22 14:42:00,
2013-06-22 09:47:00,84.2,71.6,30.01,SW,225,6.9,6.9,66,0.00,,,0.00,WUHU216EASYWX,2013-06-22 14:47:00,
2013-06-22 09:52:00,84.7,71.8,30.01,SW,225,6.0,6.0,65,0.00,,,0.00,WUHU216EASYWX,2013-06-22 14:52:00,
2013-06-22 09:57:00,85.1,71.6,30.01,NW,315,2.2,2.2,64,0.00,,,0.00,WUHU216EASYWX,2013-06-22 14:57:00,
2013-06-22 10:02:00,85.8,72.3,30.01,SE,135,3.1,3.1,64,0.00,,,0.00,WUHU216EASYWX,2013-06-22 15:02:00,
2013-06-22 10:07:00,86.0,72.5,30.01,SW,225,3.8,3.8,64,0.00,,,0.00,WUHU216EASYWX,2013-06-22 15:07:00,
2013-06-22 10:12:00,85.6,71.6,30.01,SW,225,6.0,6.0,63,0.00,,,0.00,WUHU216EASYWX,2013-06-22 15:12:00,
2013-06-22 10:17:00,85.6,71.6,30.01,WSW,248,4.5,4.5,63,0.00,,,0.00,WUHU216EASYWX,2013-06-22 15:17:00,
2013-06-22 10:22:00,85.6,71.6,30.01,South,180,3.8,3.8,63,0.00,,,0.00,WUHU216EASYWX,2013-06-22 15:22:00,
2013-06-22 10:27:00,86.4,70.9,30.01,South,180,7.6,7.6,60,0.00,,,0.00,WUHU216EASYWX,2013-06-22 15:27:00,
2013-06-22 10:32:00,86.0,71.1,30.01,SW,225,9.2,9.2,61,0.00,,,0.00,WUHU216EASYWX,2013-06-22 15:32:00,
2013-06-22 10:37:00,86.2,71.8,30.01,South,180,3.8,3.8,62,0.00,,,0.00,WUHU216EASYWX,2013-06-22 15:37:00,
2013-06-22 10:42:00,86.5,71.6,30.01,SE,135,4.5,4.5,61,0.00,,,0.00,WUHU216EASYWX,2013-06-22 15:42:00,
2013-06-22 10:47:00,86.7,71.8,30.01,South,180,4.5,4.5,61,0.00,,,0.00,WUHU216EASYWX,2013-06-22 15:47:00,
2013-06-22 10:52:00,86.7,71.2,30.01,SW,225,4.5,4.5,60,0.00,,,0.00,WUHU216EASYWX,2013-06-22 15:52:00,
2013-06-22 10:57:00,86.5,71.1,30.00,NW,315,8.3,8.3,60,0.00,,,0.00,WUHU216EASYWX,2013-06-22 15:57:00,
2013-06-22 11:02:00,87.3,71.8,30.00,SW,225,5.4,5.4,60,0.00,,,0.00,WUHU216EASYWX,2013-06-22 16:02:00,
2013-06-22 11:07:00,87.4,71.4,30.00,SW,225,7.6,7.6,59,0.00,,,0.00,WUHU216EASYWX,2013-06-22 16:07:00,
2013-06-22 11:12:00,87.4,70.9,30.01,SW,225,6.9,6.9,58,0.00,,,0.00,WUHU216EASYWX,2013-06-22 16:12:00,
2013-06-22 11:17:00,87.6,71.1,30.01,South,180,5.4,5.4,58,0.00,,,0.00,WUHU216EASYWX,2013-06-22 16:17:00,
2013-06-22 11:22:00,88.3,71.2,30.01,South,180,3.8,3.8,57,0.00,,,0.00,WUHU216EASYWX,2013-06-22 16:22:00,
2013-06-22 11:27:00,87.8,70.2,30.01,South,180,8.3,8.3,56,0.00,,,0.00,WUHU216EASYWX,2013-06-22 16:27:00,
2013-06-22 11:32:00,88.5,71.4,30.01,SW,225,4.5,4.5,57,0.00,,,0.00,WUHU216EASYWX,2013-06-22 16:32:00,
2013-06-22 11:37:00,89.1,71.4,30.00,SE,135,3.8,3.8,56,0.00,,,0.00,WUHU216EASYWX,2013-06-22 16:37:00,
2013-06-22 11:42:00,88.7,70.5,30.00,SE,135,6.9,6.9,55,0.00,,,0.00,WUHU216EASYWX,2013-06-22 16:42:00,
2013-06-22 11:47:00,89.1,70.9,30.00,East,90,3.8,3.8,55,0.00,,,0.00,WUHU216EASYWX,2013-06-22 16:47:00,
2013-06-22 11:52:00,89.1,69.8,30.01,West,270,6.0,6.0,53,0.00,,,0.00,WUHU216EASYWX,2013-06-22 16:52:00,
2013-06-22 11:57:00,89.1,68.7,30.01,South,180,8.3,8.3,51,0.00,,,0.00,WUHU216EASYWX,2013-06-22 16:57:00,
2013-06-22 12:02:00,88.7,67.8,30.01,SW,225,9.2,9.2,50,0.00,,,0.00,WUHU216EASYWX,2013-06-22 17:02:00,
2013-06-22 12:07:00,88.5,67.6,30.01,South,180,9.2,9.2,50,0.00,,,0.00,WUHU216EASYWX,2013-06-22 17:07:00,
2013-06-22 12:12:00,89.2,68.2,30.01,SW,225,8.3,8.3,50,0.00,,,0.00,WUHU216EASYWX,2013-06-22 17:12:00,
2013-06-22 12:17:00,89.1,67.5,30.00,North,0,9.2,9.2,49,0.00,,,0.00,WUHU216EASYWX,2013-06-22 17:17:00,
2013-06-22 12:22:00,89.1,66.9,30.00,South,180,6.9,6.9,48,0.00,,,0.00,WUHU216EASYWX,2013-06-22 17:22:00,
2013-06-22 12:27:00,89.1,66.2,30.01,SW,225,5.4,5.4,47,0.00,,,0.00,WUHU216EASYWX,2013-06-22 17:27:00,
2013-06-22 12:32:00,90.0,65.8,30.00,South,180,7.6,7.6,45,0.00,,,0.00,WUHU216EASYWX,2013-06-22 17:32:00,
2013-06-22 12:37:00,89.6,65.5,30.01,SW,225,7.6,7.6,45,0.00,,,0.00,WUHU216EASYWX,2013-06-22 17:37:00,
2013-06-22 12:42:00,90.1,66.6,30.00,SE,135,5.4,5.4,46,0.00,,,0.00,WUHU216EASYWX,2013-06-22 17:42:00,
2013-06-22 12:47:00,89.2,64.6,30.01,SW,225,8.3,8.3,44,0.00,,,0.00,WUHU216EASYWX,2013-06-22 17:47:00,
2013-06-22 12:52:00,89.8,65.7,30.01,SE,135,5.4,5.4,45,0.00,,,0.00,WUHU216EASYWX,2013-06-22 17:52:00,
2013-06-22 12:57:00,90.5,66.4,30.01,NW,315,1.6,1.6,45,0.00,,,0.00,WUHU216EASYWX,2013-06-22 17:57:00,
2013-06-22 13:02:00,91.4,67.8,30.01,South,180,4.5,4.5,46,0.00,,,0.00,WUHU216EASYWX,2013-06-22 18:02:00,
2013-06-22 13:07:00,91.2,68.2,30.01,East,90,6.9,6.9,47,0.00,,,0.00,WUHU216EASYWX,2013-06-22 18:07:00,
2013-06-22 13:12:00,91.0,69.3,30.01,South,180,5.4,5.4,49,0.00,,,0.00,WUHU216EASYWX,2013-06-22 18:12:00,
2013-06-22 13:17:00,91.2,68.2,30.01,East,90,6.0,6.0,47,0.00,,,0.00,WUHU216EASYWX,2013-06-22 18:17:00,
2013-06-22 13:22:00,91.2,68.2,30.01,SW,225,3.8,3.8,47,0.00,,,0.00,WUHU216EASYWX,2013-06-22 18:22:00,
2013-06-22 13:27:00,91.4,68.4,30.01,South,180,5.4,5.4,47,0.00,,,0.00,WUHU216EASYWX,2013-06-22 18:27:00,
2013-06-22 13:32:00,90.7,66.6,30.01,SW,225,6.0,6.0,45,0.00,,,0.00,WUHU216EASYWX,2013-06-22 18:32:00,
2013-06-22 13:37:00,91.6,68.5,30.00,East,90,3.8,3.8,47,0.00,,,0.00,WUHU216EASYWX,2013-06-22 18:37:00,
2013-06-22 13:42:00,91.0,66.7,30.00,SW,225,8.3,8.3,45,0.00,,,0.00,WUHU216EASYWX,2013-06-22 18:42:00,
2013-06-22 13:47:00,91.2,66.9,30.00,SE,135,5.4,5.4,45,0.00,,,0.00,WUHU216EASYWX,2013-06-22 18:47:00,
2013-06-22 13:52:00,91.4,67.1,29.99,SW,225,4.5,4.5,45,0.00,,,0.00,WUHU216EASYWX,2013-06-22 18:52:00,
2013-06-22 13:57:00,91.2,66.4,30.00,SW,225,9.9,9.9,44,0.00,,,0.00,WUHU216EASYWX,2013-06-22 18:57:00,
2013-06-22 14:02:00,91.4,67.1,29.99,SE,135,4.5,4.5,45,0.00,,,0.00,WUHU216EASYWX,2013-06-22 19:02:00,
2013-06-22 14:07:00,91.9,66.4,29.99,East,90,6.9,6.9,43,0.00,,,0.00,WUHU216EASYWX,2013-06-22 19:07:00,
2013-06-22 14:12:00,91.8,68.2,29.99,South,180,3.1,3.1,46,0.00,,,0.00,WUHU216EASYWX,2013-06-22 19:12:00,
2013-06-22 14:17:00,92.5,66.7,29.99,SE,135,6.0,6.0,43,0.00,,,0.00,WUHU216EASYWX,2013-06-22 19:17:00,
2013-06-22 14:22:00,91.8,66.7,29.98,SE,135,7.6,7.6,44,0.00,,,0.00,WUHU216EASYWX,2013-06-22 19:22:00,
2013-06-22 14:27:00,92.1,67.1,29.98,NW,315,5.4,5.4,44,0.00,,,0.00,WUHU216EASYWX,2013-06-22 19:27:00,
2013-06-22 14:32:00,92.3,66.0,29.98,SW,225,7.6,7.6,42,0.00,,,0.00,WUHU216EASYWX,2013-06-22 19:32:00,
2013-06-22 14:37:00,91.9,66.9,29.98,South,180,5.4,5.4,44,0.00,,,0.00,WUHU216EASYWX,2013-06-22 19:37:00,
2013-06-22 14:42:00,92.1,68.4,29.98,NNE,23,6.0,6.0,46,0.00,,,0.00,WUHU216EASYWX,2013-06-22 19:42:00,
2013-06-22 14:47:00,92.1,67.8,29.97,SE,135,6.9,6.9,45,0.00,,,0.00,WUHU216EASYWX,2013-06-22 19:47:00,
2013-06-22 14:52:00,91.6,66.7,29.97,South,180,6.0,6.0,44,0.00,,,0.00,WUHU216EASYWX,2013-06-22 19:52:00,
2013-06-22 14:57:00,91.6,68.0,29.97,SW,225,6.0,6.0,46,0.00,,,0.00,WUHU216EASYWX,2013-06-22 19:57:00,
2013-06-22 15:02:00,91.4,68.4,29.97,SW,225,3.1,3.1,47,0.00,,,0.00,WUHU216EASYWX,2013-06-22 20:02:00,
2013-06-22 15:07:00,92.3,69.3,29.97,South,180,6.9,6.9,47,0.00,,,0.00,WUHU216EASYWX,2013-06-22 20:07:00,
2013-06-22 15:12:00,91.8,67.5,29.96,NNW,338,6.9,6.9,45,0.00,,,0.00,WUHU216EASYWX,2013-06-22 20:12:00,
2013-06-22 15:17:00,91.8,67.5,29.96,South,180,8.3,8.3,45,0.00,,,0.00,WUHU216EASYWX,2013-06-22 20:17:00,
2013-06-22 15:22:00,91.9,68.2,29.96,South,180,7.6,7.6,46,0.00,,,0.00,WUHU216EASYWX,2013-06-22 20:22:00,
2013-06-22 15:27:00,91.9,68.9,29.95,SE,135,7.6,7.6,47,0.00,,,0.00,WUHU216EASYWX,2013-06-22 20:27:00,
2013-06-22 15:32:00,92.7,68.9,29.95,SE,135,4.5,4.5,46,0.00,,,0.00,WUHU216EASYWX,2013-06-22 20:32:00,
2013-06-22 15:37:00,93.0,68.5,29.95,South,180,8.3,8.3,45,0.00,,,0.00,WUHU216EASYWX,2013-06-22 20:37:00,
2013-06-22 15:42:00,92.5,69.4,29.94,SE,135,8.3,8.3,47,0.00,,,0.00,WUHU216EASYWX,2013-06-22 20:42:00,
2013-06-22 15:47:00,92.5,68.7,29.94,SE,135,9.2,9.2,46,0.00,,,0.00,WUHU216EASYWX,2013-06-22 20:47:00,
2013-06-22 15:52:00,92.1,69.1,29.94,South,180,8.3,8.3,47,0.00,,,0.00,WUHU216EASYWX,2013-06-22 20:52:00,
2013-06-22 15:57:00,92.5,69.4,29.94,South,180,6.0,6.0,47,0.00,,,0.00,WUHU216EASYWX,2013-06-22 20:57:00,
2013-06-22 16:02:00,92.3,69.3,29.93,SE,135,6.0,6.0,47,0.00,,,0.00,WUHU216EASYWX,2013-06-22 21:02:00,
2013-06-22 16:07:00,92.3,69.8,29.93,SE,135,6.0,6.0,48,0.00,,,0.00,WUHU216EASYWX,2013-06-22 21:07:00,
2013-06-22 16:12:00,91.8,68.7,29.93,East,90,6.0,6.0,47,0.00,,,0.00,WUHU216EASYWX,2013-06-22 21:12:00,
2013-06-22 16:17:00,91.4,69.1,29.93,SE,135,6.9,6.9,48,0.00,,,0.00,WUHU216EASYWX,2013-06-22 21:17:00,
2013-06-22 16:22:00,91.4,68.4,29.93,SE,135,6.0,6.0,47,0.00,,,0.00,WUHU216EASYWX,2013-06-22 21:22:00,
2013-06-22 16:27:00,91.4,69.1,29.93,South,180,6.9,6.9,48,0.00,,,0.00,WUHU216EASYWX,2013-06-22 21:27:00,
2013-06-22 16:32:00,91.4,68.4,29.93,East,90,8.3,8.3,47,0.00,,,0.00,WUHU216EASYWX,2013-06-22 21:32:00,
2013-06-22 16:37:00,91.9,68.9,29.92,South,180,3.8,3.8,47,0.00,,,0.00,WUHU216EASYWX,2013-06-22 21:37:00,
2013-06-22 16:42:00,91.8,68.7,29.92,NE,45,6.9,6.9,47,0.00,,,0.00,WUHU216EASYWX,2013-06-22 21:42:00,
2013-06-22 16:47:00,91.6,69.3,29.92,East,90,7.6,7.6,48,0.00,,,0.00,WUHU216EASYWX,2013-06-22 21:47:00,
2013-06-22 16:52:00,91.9,70.2,29.91,SW,225,4.5,4.5,49,0.00,,,0.00,WUHU216EASYWX,2013-06-22 21:52:00,
2013-06-22 16:57:00,91.6,68.5,29.92,South,180,8.3,8.3,47,0.00,,,0.00,WUHU216EASYWX,2013-06-22 21:57:00,
2013-06-22 17:02:00,91.4,69.6,29.91,South,180,11.4,11.4,49,0.00,,,0.00,WUHU216EASYWX,2013-06-22 22:02:00,
2013-06-22 17:07:00,91.4,69.6,29.91,SE,135,4.5,4.5,49,0.00,,,0.00,WUHU216EASYWX,2013-06-22 22:07:00,
2013-06-22 17:12:00,91.2,69.4,29.91,South,180,6.0,6.0,49,0.00,,,0.00,WUHU216EASYWX,2013-06-22 22:12:00,
2013-06-22 17:17:00,91.6,69.8,29.91,SW,225,5.4,5.4,49,0.00,,,0.00,WUHU216EASYWX,2013-06-22 22:17:00,
2013-06-22 17:22:00,91.8,70.5,29.90,North,0,3.8,3.8,50,0.00,,,0.00,WUHU216EASYWX,2013-06-22 22:22:00,
2013-06-22 17:27:00,91.2,69.4,29.90,SE,135,6.0,6.0,49,0.00,,,0.00,WUHU216EASYWX,2013-06-22 22:27:00,
2013-06-22 17:32:00,91.0,69.3,29.90,South,180,9.9,9.9,49,0.00,,,0.00,WUHU216EASYWX,2013-06-22 22:32:00,
2013-06-22 17:37:00,91.0,69.3,29.90,South,180,8.3,8.3,49,0.00,,,0.00,WUHU216EASYWX,2013-06-22 22:37:00,
2013-06-22 17:42:00,90.9,69.8,29.89,South,180,4.5,4.5,50,0.00,,,0.00,WUHU216EASYWX,2013-06-22 22:42:00,
2013-06-22 17:47:00,91.0,69.8,29.89,SE,135,4.5,4.5,50,0.00,,,0.00,WUHU216EASYWX,2013-06-22 22:47:00,
2013-06-22 17:52:00,91.0,69.3,29.89,East,90,7.6,7.6,49,0.00,,,0.00,WUHU216EASYWX,2013-06-22 22:52:00,
2013-06-22 17:57:00,91.0,68.7,29.89,SW,225,5.4,5.4,48,0.00,,,0.00,WUHU216EASYWX,2013-06-22 22:57:00,
2013-06-22 18:02:00,91.0,68.7,29.88,SE,135,6.9,6.9,48,0.00,,,0.00,WUHU216EASYWX,2013-06-22 23:02:00,
2013-06-22 18:07:00,91.0,68.7,29.88,East,90,3.8,3.8,48,0.00,,,0.00,WUHU216EASYWX,2013-06-22 23:07:00,
2013-06-22 18:12:00,91.2,67.6,29.88,South,180,7.6,7.6,46,0.00,,,0.00,WUHU216EASYWX,2013-06-22 23:12:00,
2013-06-22 18:17:00,91.4,68.4,29.88,SE,135,5.4,5.4,47,0.00,,,0.00,WUHU216EASYWX,2013-06-22 23:17:00,
2013-06-22 18:22:00,91.0,68.0,29.88,South,180,7.6,7.6,47,0.00,,,0.00,WUHU216EASYWX,2013-06-22 23:22:00,
2013-06-22 18:27:00,91.0,68.0,29.88,SE,135,9.2,9.2,47,0.00,,,0.00,WUHU216EASYWX,2013-06-22 23:27:00,
2013-06-22 18:32:00,90.5,68.7,29.88,SW,225,3.8,3.8,49,0.00,,,0.00,WUHU216EASYWX,2013-06-22 23:32:00,
2013-06-22 18:37:00,90.3,69.3,29.88,SW,225,2.2,2.2,50,0.00,,,0.00,WUHU216EASYWX,2013-06-22 23:37:00,
2013-06-22 18:42:00,90.5,70.0,29.88,SE,135,4.5,4.5,51,0.00,,,0.00,WUHU216EASYWX,2013-06-22 23:42:00,
2013-06-22 18:47:00,90.1,69.6,29.87,South,180,3.8,3.8,51,0.00,,,0.00,WUHU216EASYWX,2013-06-22 23:47:00,
2013-06-22 18:52:00,90.3,69.8,29.88,SE,135,3.8,3.8,51,0.00,,,0.00,WUHU216EASYWX,2013-06-22 23:52:00,
2013-06-22 18:57:00,90.1,69.6,29.88,SW,225,4.5,4.5,51,0.00,,,0.00,WUHU216EASYWX,2013-06-22 23:57:00,
2013-06-22 19:02:00,90.0,68.9,29.88,SE,135,4.5,4.5,50,0.00,,,0.00,WUHU216EASYWX,2013-06-23 00:02:00,
2013-06-22 19:07:00,90.0,68.9,29.88,South,180,5.4,5.4,50,0.00,,,0.00,WUHU216EASYWX,2013-06-23 00:07:00,
2013-06-22 19:12:00,89.8,68.2,29.88,SW,225,8.3,8.3,49,0.00,,,0.00,WUHU216EASYWX,2013-06-23 00:12:00,
2013-06-22 19:17:00,89.4,68.4,29.88,South,180,3.1,3.1,50,0.00,,,0.00,WUHU216EASYWX,2013-06-23 00:17:00,
2013-06-22 19:22:00,89.4,68.4,29.88,SE,135,4.5,4.5,50,0.00,,,0.00,WUHU216EASYWX,2013-06-23 00:22:00,
2013-06-22 19:27:00,89.2,68.2,29.88,South,180,3.1,3.1,50,0.00,,,0.00,WUHU216EASYWX,2013-06-23 00:27:00,
2013-06-22 19:32:00,89.1,68.0,29.88,SE,135,4.5,4.5,50,0.00,,,0.00,WUHU216EASYWX,2013-06-23 00:32:00,
2013-06-22 19:37:00,88.9,67.3,29.88,SE,135,6.9,6.9,49,0.00,,,0.00,WUHU216EASYWX,2013-06-23 00:37:00,
2013-06-22 19:42:00,88.7,67.1,29.88,East,90,6.0,6.0,49,0.00,,,0.00,WUHU216EASYWX,2013-06-23 00:42:00,
2013-06-22 19:47:00,88.5,66.9,29.88,South,180,9.9,9.9,49,0.00,,,0.00,WUHU216EASYWX,2013-06-23 00:47:00,
2013-06-22 19:52:00,88.7,67.8,29.88,South,180,6.9,6.9,50,0.00,,,0.00,WUHU216EASYWX,2013-06-23 00:52:00,
2013-06-22 19:57:00,88.7,67.8,29.88,South,180,6.0,6.0,50,0.00,,,0.00,WUHU216EASYWX,2013-06-23 00:57:00,
2013-06-22 20:02:00,88.7,67.8,29.88,South,180,5.4,5.4,50,0.00,,,0.00,WUHU216EASYWX,2013-06-23 01:02:00,
2013-06-22 20:07:00,88.5,67.6,29.88,SW,225,3.8,3.8,50,0.00,,,0.00,WUHU216EASYWX,2013-06-23 01:07:00,
2013-06-22 20:12:00,88.0,67.6,29.88,South,180,1.6,1.6,51,0.00,,,0.00,WUHU216EASYWX,2013-06-23 01:12:00,
2013-06-22 20:17:00,87.6,67.8,29.88,SE,135,3.8,3.8,52,0.00,,,0.00,WUHU216EASYWX,2013-06-23 01:17:00,
2013-06-22 20:22:00,87.3,67.6,29.88,SW,225,3.8,3.8,52,0.00,,,0.00,WUHU216EASYWX,2013-06-23 01:22:00,
2013-06-22 20:27:00,87.1,67.5,29.88,South,180,3.8,3.8,52,0.00,,,0.00,WUHU216EASYWX,2013-06-23 01:27:00,
2013-06-22 20:32:00,86.9,67.3,29.88,South,180,4.5,4.5,52,0.00,,,0.00,WUHU216EASYWX,2013-06-23 01:32:00,
2013-06-22 20:37:00,86.7,67.1,29.88,SE,135,4.5,4.5,52,0.00,,,0.00,WUHU216EASYWX,2013-06-23 01:37:00,
2013-06-22 20:42:00,86.5,67.5,29.88,South,180,2.2,2.2,53,0.00,,,0.00,WUHU216EASYWX,2013-06-23 01:42:00,
2013-06-22 20:47:00,86.4,67.3,29.88,South,180,6.9,6.9,53,0.00,,,0.00,WUHU216EASYWX,2013-06-23 01:47:00,
2013-06-22 20:53:00,86.2,67.1,29.88,South,180,3.8,3.8,53,0.00,,,0.00,WUHU216EASYWX,2013-06-23 01:53:00,
2013-06-22 20:58:00,86.0,67.5,29.89,NW,315,3.8,3.8,54,0.00,,,0.00,WUHU216EASYWX,2013-06-23 01:58:00,
2013-06-22 21:03:00,85.8,67.3,29.89,SE,135,6.0,6.0,54,0.00,,,0.00,WUHU216EASYWX,2013-06-23 02:03:00,
2013-06-22 21:08:00,85.6,67.1,29.89,South,180,3.1,3.1,54,0.00,,,0.00,WUHU216EASYWX,2013-06-23 02:08:00,
2013-06-22 21:13:00,85.6,67.1,29.89,South,180,2.2,2.2,54,0.00,,,0.00,WUHU216EASYWX,2013-06-23 02:13:00,
2013-06-22 21:18:00,85.5,66.9,29.90,South,180,4.5,4.5,54,0.00,,,0.00,WUHU216EASYWX,2013-06-23 02:18:00,
2013-06-22 21:23:00,85.3,67.3,29.90,SE,135,5.4,5.4,55,0.00,,,0.00,WUHU216EASYWX,2013-06-23 02:23:00,
2013-06-22 21:28:00,84.9,67.1,29.90,South,180,4.5,4.5,55,0.00,,,0.00,WUHU216EASYWX,2013-06-23 02:28:00,
2013-06-22 21:33:00,85.1,67.6,29.91,South,180,2.2,2.2,56,0.00,,,0.00,WUHU216EASYWX,2013-06-23 02:33:00,
2013-06-22 21:38:00,84.9,67.5,29.91,East,90,3.1,3.1,56,0.00,,,0.00,WUHU216EASYWX,2013-06-23 02:38:00,
2013-06-22 21:43:00,84.6,67.6,29.91,ESE,105,3.0,3.8,57,0.00,,,0.00,WUHU216EASYWX,2013-06-23 02:43:00,
2013-06-22 21:48:00,84.6,67.6,29.91,SE,135,3.8,7.6,57,0.00,,,0.00,WUHU216EASYWX,2013-06-23 02:48:00,
2013-06-22 21:53:00,84.4,67.5,29.92,South,180,1.6,1.6,57,0.00,,,0.00,WUHU216EASYWX,2013-06-23 02:53:00,
2013-06-22 21:58:00,84.4,68.0,29.91,NE,45,2.2,2.2,58,0.00,,,0.00,WUHU216EASYWX,2013-06-23 02:58:00,
2013-06-22 22:03:00,84.0,67.6,29.92,SW,225,3.1,3.1,58,0.00,,,0.00,WUHU216EASYWX,2013-06-23 03:03:00,
2013-06-22 22:08:00,84.0,67.6,29.92,West,270,3.1,5.4,58,0.00,,,0.00,WUHU216EASYWX,2013-06-23 03:08:00,
2013-06-22 22:18:00,83.7,68.4,29.93,East,90,4.5,4.5,60,0.00,,,0.00,WUHU216EASYWX,2013-06-23 03:18:00,
2013-06-22 22:23:00,83.5,68.2,29.93,SE,135,4.5,4.5,60,0.00,,,0.00,WUHU216EASYWX,2013-06-23 03:23:00,
2013-06-22 22:28:00,83.3,68.0,29.92,SE,135,3.1,3.1,60,0.00,,,0.00,WUHU216EASYWX,2013-06-23 03:28:00,
2013-06-22 22:33:00,83.1,68.4,29.93,SE,135,2.2,2.2,61,0.00,,,0.00,WUHU216EASYWX,2013-06-23 03:33:00,
2013-06-22 22:43:00,82.8,68.5,29.93,East,90,3.1,3.1,62,0.00,,,0.00,WUHU216EASYWX,2013-06-23 03:43:00,
2013-06-22 22:48:00,82.8,68.9,29.93,East,90,2.2,2.2,63,0.00,,,0.00,WUHU216EASYWX,2013-06-23 03:48:00,
2013-06-22 22:53:00,82.6,69.3,29.93,SE,135,3.1,3.1,64,0.00,,,0.00,WUHU216EASYWX,2013-06-23 03:53:00,
2013-06-22 23:03:00,82.4,69.4,29.93,South,180,4.5,4.5,65,0.00,,,0.00,WUHU216EASYWX,2013-06-23 04:03:00,
2013-06-22 23:17:00,82.4,69.4,29.93,South,180,3.1,3.1,65,0.00,,,0.00,WUHU216EASYWX,2013-06-23 04:17:00,
2013-06-22 23:22:00,82.4,69.4,29.93,NNW,338,4.5,4.5,65,0.00,,,0.00,WUHU216EASYWX,2013-06-23 04:22:00,
2013-06-22 23:27:00,82.4,69.4,29.93,East,90,3.8,3.8,65,0.00,,,0.00,WUHU216EASYWX,2013-06-23 04:27:00,
2013-06-22 23:32:00,82.4,69.4,29.93,SW,225,3.1,3.1,65,0.00,,,0.00,WUHU216EASYWX,2013-06-23 04:32:00,
2013-06-22 23:37:00,82.4,69.1,29.93,NW,315,3.8,3.8,64,0.00,,,0.00,WUHU216EASYWX,2013-06-23 04:37:00,
2013-06-22 23:42:00,82.4,69.4,29.93,East,90,4.5,4.5,65,0.00,,,0.00,WUHU216EASYWX,2013-06-23 04:42:00,
2013-06-22 23:47:00,82.4,69.4,29.93,South,180,3.1,3.1,65,0.00,,,0.00,WUHU216EASYWX,2013-06-23 04:47:00,
2013-06-22 23:52:00,82.2,69.3,29.93,South,180,5.4,5.4,65,0.00,,,0.00,WUHU216EASYWX,2013-06-23 04:52:00,
2013-06-22 23:57:00,82.2,69.3,29.93,East,90,3.1,3.1,65,0.00,,,0.00,WUHU216EASYWX,2013-06-23 04:57:00,